createdAt,value
2022-11-13T00:01:52.358Z,126.13
2022-11-13T00:04:38.122Z,130.40
2022-11-13T00:07:23.758Z,132.18
2022-11-13T00:10:09.448Z,132.38
2022-11-13T00:12:54.765Z,133.68
2022-11-13T00:15:40.316Z,151.20
2022-11-13T00:18:26.405Z,148.43
2022-11-13T00:21:21.571Z,149.38
2022-11-13T00:24:07.684Z,149.52
2022-11-13T00:26:53.196Z,150.95
2022-11-13T00:29:38.685Z,157.05
2022-11-13T00:32:24.425Z,153.68
2022-11-13T00:35:09.964Z,146.43
2022-11-13T00:37:55.546Z,139.05
2022-11-13T00:40:41.032Z,156.70
2022-11-13T00:43:29.225Z,142.30
2022-11-13T00:46:14.986Z,153.18
2022-11-13T00:49:00.396Z,144.68
2022-11-13T00:51:45.978Z,154.48
2022-11-13T00:54:31.610Z,142.73
2022-11-13T00:57:17.050Z,146.63
2022-11-13T01:00:02.786Z,129.98
2022-11-13T01:02:48.078Z,149.88
2022-11-13T01:05:42.063Z,138.75
2022-11-13T01:08:27.877Z,151.88
2022-11-13T01:11:18.612Z,158.35
2022-11-13T01:14:04.226Z,143.55
2022-11-13T01:16:50.108Z,149.82
2022-11-13T01:19:35.483Z,154.98
2022-11-13T01:22:20.898Z,174.25
2022-11-13T01:25:07.104Z,164.70
2022-11-13T01:27:53.003Z,158.90
2022-11-13T01:30:39.941Z,160.15
2022-11-13T01:33:25.775Z,156.43
2022-11-13T01:36:14.241Z,152.48
2022-11-13T01:38:59.767Z,142.50
2022-11-13T01:41:45.097Z,159.13
2022-11-13T01:44:52.722Z,146.93
2022-11-13T01:47:38.377Z,154.57
2022-11-13T01:50:23.848Z,148.35
2022-11-13T01:53:09.615Z,152.45
2022-11-13T01:55:54.886Z,150.15
2022-11-13T01:58:44.130Z,136.13
2022-11-13T02:01:29.526Z,141.98
2022-11-13T02:04:15.343Z,147.88
2022-11-13T02:07:05.840Z,145.05
2022-11-13T02:09:55.329Z,134.57
2022-11-13T02:12:43.818Z,137.18
2022-11-13T02:15:31.734Z,134.30
2022-11-13T02:18:18.548Z,116.72
2022-11-13T02:21:16.565Z,116.65
2022-11-13T02:24:16.910Z,125.35
2022-11-13T02:27:06.385Z,129.75
2022-11-13T02:29:51.921Z,120.20
2022-11-13T02:32:46.147Z,131.63
2022-11-13T02:35:35.196Z,115.38
2022-11-13T02:38:20.515Z,117.13
2022-11-13T02:41:06.196Z,126.25
2022-11-13T02:43:51.377Z,128.07
2022-11-13T02:46:37.288Z,126.82
2022-11-13T02:49:22.671Z,115.15
2022-11-13T02:52:08.204Z,111.10
2022-11-13T02:54:53.785Z,116.97
2022-11-13T02:57:39.290Z,124.93
2022-11-13T03:00:25.156Z,105.22
2022-11-13T03:03:10.865Z,115.78
2022-11-13T03:05:56.559Z,114.70
2022-11-13T03:08:42.081Z,114.35
2022-11-13T03:11:27.657Z,119.15
2022-11-13T03:14:12.908Z,111.97
2022-11-13T03:16:58.744Z,129.13
2022-11-13T03:19:44.770Z,116.03
2022-11-13T03:22:30.473Z,113.93
2022-11-13T03:25:16.244Z,111.50
2022-11-13T03:28:02.190Z,118.75
2022-11-13T03:30:48.537Z,119.60
2022-11-13T03:33:34.157Z,119.05
2022-11-13T03:36:19.646Z,119.10
2022-11-13T03:39:05.414Z,120.43
2022-11-13T03:41:50.608Z,112.55
2022-11-13T03:44:36.362Z,119.82
2022-11-13T03:47:21.811Z,124.05
2022-11-13T03:50:07.697Z,131.68
2022-11-13T03:52:53.435Z,117.95
2022-11-13T03:55:39.237Z,119.60
2022-11-13T03:58:24.604Z,118.47
2022-11-13T04:01:10.288Z,125.28
2022-11-13T04:03:56.087Z,125.95
2022-11-13T04:06:41.866Z,115.47
2022-11-13T04:09:27.624Z,116.07
2022-11-13T04:12:13.105Z,121.30
2022-11-13T04:14:58.518Z,118.22
2022-11-13T04:17:44.361Z,124.65
2022-11-13T04:20:30.634Z,135.43
2022-11-13T04:23:17.991Z,138.60
2022-11-13T04:26:03.615Z,152.43
2022-11-13T04:28:49.299Z,162.15
2022-11-13T04:31:35.041Z,156.07
2022-11-13T04:34:20.472Z,152.30
2022-11-13T04:37:05.913Z,137.23
2022-11-13T04:39:51.497Z,134.85
2022-11-13T04:42:51.846Z,134.88
2022-11-13T04:45:37.750Z,131.20
2022-11-13T04:48:26.420Z,139.52
2022-11-13T04:51:13.385Z,144.75
2022-11-13T04:53:59.091Z,127.57
2022-11-13T04:56:44.669Z,133.25
2022-11-13T04:59:30.153Z,131.10
2022-11-13T05:02:15.789Z,127.07
2022-11-13T05:05:04.957Z,132.20
2022-11-13T05:07:50.882Z,121.28
2022-11-13T05:10:36.892Z,120.13
2022-11-13T05:13:22.932Z,111.57
2022-11-13T05:16:11.251Z,123.60
2022-11-13T05:18:59.345Z,119.25
2022-11-13T05:21:44.994Z,116.78
2022-11-13T05:24:30.654Z,121.85
2022-11-13T05:27:17.518Z,122.15
2022-11-13T05:30:04.308Z,117.45
2022-11-13T05:32:50.053Z,117.97
2022-11-13T05:35:35.648Z,115.15
2022-11-13T05:38:21.211Z,117.45
2022-11-13T05:41:12.289Z,120.55
2022-11-13T05:43:59.731Z,122.22
2022-11-13T05:46:45.345Z,120.05
2022-11-13T05:49:31.327Z,117.10
2022-11-13T05:52:16.947Z,115.50
2022-11-13T05:55:02.660Z,108.93
2022-11-13T05:57:48.162Z,105.80
2022-11-13T06:00:33.830Z,104.53
2022-11-13T06:03:19.206Z,103.97
2022-11-13T06:06:06.064Z,113.63
2022-11-13T06:08:52.702Z,110.10
2022-11-13T06:11:38.205Z,109.38
2022-11-13T06:14:23.720Z,115.63
2022-11-13T06:17:09.151Z,116.53
2022-11-13T06:19:54.663Z,113.55
2022-11-13T06:22:40.297Z,105.68
2022-11-13T06:25:25.832Z,103.03
2022-11-13T06:28:11.577Z,101.38
2022-11-13T06:31:02.126Z,108.00
2022-11-13T06:33:48.005Z,102.75
2022-11-13T06:36:36.173Z,111.50
2022-11-13T06:39:21.676Z,108.22
2022-11-13T06:42:07.160Z,108.10
2022-11-13T06:44:52.979Z,116.32
2022-11-13T06:47:38.674Z,115.43
2022-11-13T06:50:24.127Z,111.20
2022-11-13T06:53:09.542Z,118.43
2022-11-13T06:55:54.934Z,115.07
2022-11-13T06:58:41.161Z,102.45
2022-11-13T07:01:27.361Z,110.57
2022-11-13T07:04:13.845Z,111.82
2022-11-13T07:06:59.346Z,106.93
2022-11-13T07:09:44.782Z,106.45
2022-11-13T07:12:30.342Z,102.45
2022-11-13T07:15:16.643Z,112.05
2022-11-13T07:18:03.104Z,110.80
2022-11-13T07:20:48.880Z,92.20
2022-11-13T07:23:37.091Z,85.35
2022-11-13T07:26:22.730Z,83.05
2022-11-13T07:29:08.544Z,73.20
2022-11-13T07:31:54.479Z,77.50
2022-11-13T07:34:40.255Z,79.45
2022-11-13T07:37:27.335Z,100.50
2022-11-13T07:40:13.505Z,98.63
2022-11-13T07:43:01.516Z,86.45
2022-11-13T07:45:47.106Z,82.60
2022-11-13T07:48:32.945Z,83.30
2022-11-13T07:51:18.784Z,77.68
2022-11-13T07:54:04.685Z,86.85
2022-11-13T07:56:50.435Z,76.22
2022-11-13T07:59:36.077Z,75.80
2022-11-13T08:02:26.302Z,71.47
2022-11-13T08:05:12.278Z,71.47
2022-11-13T08:07:57.971Z,67.38
2022-11-13T08:10:43.541Z,74.00
2022-11-13T08:13:28.857Z,79.53
2022-11-13T08:16:14.452Z,74.57
2022-11-13T08:18:59.792Z,79.55
2022-11-13T08:21:45.345Z,72.43
2022-11-13T08:24:30.940Z,69.72
2022-11-13T08:27:16.342Z,64.68
2022-11-13T08:30:01.943Z,65.82
2022-11-13T08:32:51.014Z,70.10
2022-11-13T08:35:36.816Z,60.63
2022-11-13T08:38:22.810Z,60.08
2022-11-13T08:41:10.189Z,61.28
2022-11-13T08:43:56.082Z,72.55
2022-11-13T08:46:41.887Z,63.05
2022-11-13T08:49:30.268Z,64.72
2022-11-13T08:52:16.088Z,79.05
2022-11-13T08:55:01.779Z,66.38
2022-11-13T08:57:47.067Z,62.50
2022-11-13T09:00:33.625Z,63.10
2022-11-13T09:03:19.240Z,60.45
2022-11-13T09:06:09.299Z,61.15
2022-11-13T09:08:55.124Z,65.47
2022-11-13T09:11:41.732Z,58.22
2022-11-13T09:14:28.266Z,56.58
2022-11-13T09:17:13.810Z,55.92
2022-11-13T09:20:03.724Z,65.45
2022-11-13T09:22:56.916Z,64.38
2022-11-13T09:25:42.847Z,64.55
2022-11-13T09:28:28.803Z,62.00
2022-11-13T09:31:15.381Z,51.80
2022-11-13T09:34:00.862Z,59.05
2022-11-13T09:36:46.397Z,56.70
2022-11-13T09:39:32.792Z,63.45
2022-11-13T09:42:22.051Z,63.22
2022-11-13T09:45:13.122Z,62.03
2022-11-13T09:48:18.278Z,59.58
2022-11-13T09:51:21.409Z,62.67
2022-11-13T09:54:13.568Z,57.90
2022-11-13T09:57:35.710Z,61.58
2022-11-13T10:00:22.632Z,68.85
2022-11-13T10:03:23.996Z,59.08
2022-11-13T10:06:41.104Z,66.22
2022-11-13T10:09:35.681Z,58.65
2022-11-13T10:12:22.327Z,61.75
2022-11-13T10:15:11.256Z,59.38
2022-11-13T10:18:02.895Z,68.88
2022-11-13T10:21:09.697Z,59.60
2022-11-13T10:23:57.094Z,64.07
2022-11-13T10:26:45.983Z,66.65
2022-11-13T10:29:31.377Z,69.20
2022-11-13T10:32:27.158Z,65.32
2022-11-13T10:35:53.927Z,67.00
2022-11-13T10:38:51.234Z,69.72
2022-11-13T10:41:48.392Z,66.32
2022-11-13T10:44:35.510Z,64.95
2022-11-13T10:47:42.798Z,66.40
2022-11-13T10:50:31.048Z,68.72
2022-11-13T10:53:20.234Z,71.97
2022-11-13T10:56:22.707Z,72.00
2022-11-13T10:59:17.174Z,75.22
2022-11-13T11:02:16.436Z,71.22
2022-11-13T11:05:21.773Z,74.70
2022-11-13T11:08:11.031Z,75.13
2022-11-13T11:11:34.411Z,76.40
2022-11-13T11:14:26.669Z,75.25
2022-11-13T11:17:14.259Z,62.97
2022-11-13T11:20:16.765Z,70.38
2022-11-13T11:23:50.675Z,66.85
2022-11-13T11:26:49.572Z,65.97
2022-11-13T11:29:44.989Z,61.38
2022-11-13T11:32:38.857Z,60.78
2022-11-13T11:35:32.522Z,57.45
2022-11-13T11:38:27.523Z,62.45
2022-11-13T11:41:17.165Z,55.55
2022-11-13T11:44:38.256Z,57.90
2022-11-13T11:47:23.923Z,54.17
2022-11-13T11:50:22.958Z,54.28
2022-11-13T11:53:24.479Z,50.13
2022-11-13T11:56:32.798Z,53.15
2022-11-13T11:59:33.437Z,45.30
2022-11-13T12:02:56.901Z,42.55
2022-11-13T12:06:16.228Z,48.27
2022-11-13T12:09:31.410Z,45.75
2022-11-13T12:12:53.296Z,42.65
2022-11-13T12:16:00.969Z,47.10
2022-11-13T12:18:46.163Z,49.30
2022-11-13T12:21:55.636Z,45.65
2022-11-13T12:25:18.771Z,49.67
2022-11-13T12:28:17.637Z,43.65
2022-11-13T12:31:15.992Z,40.53
2022-11-13T12:34:17.437Z,52.58
2022-11-13T12:37:09.952Z,50.03
2022-11-13T12:40:00.743Z,51.55
2022-11-13T12:43:08.033Z,44.28
2022-11-13T12:45:56.073Z,47.42
2022-11-13T12:48:46.603Z,46.88
2022-11-13T12:51:40.970Z,46.63
2022-11-13T12:54:32.453Z,42.05
2022-11-13T12:57:30.026Z,47.08
2022-11-13T13:00:28.490Z,43.78
2022-11-13T13:03:26.666Z,54.05
2022-11-13T13:06:28.717Z,53.42
2022-11-13T13:09:27.598Z,54.95
2022-11-13T13:12:34.801Z,59.00
2022-11-13T13:15:29.574Z,53.17
2022-11-13T13:18:18.258Z,52.72
2022-11-13T13:21:06.906Z,39.22
2022-11-13T13:23:53.593Z,43.50
2022-11-13T13:26:47.314Z,69.15
2022-11-13T13:29:34.050Z,48.10
2022-11-13T13:32:33.897Z,53.65
2022-11-13T13:35:38.878Z,43.88
2022-11-13T13:38:46.730Z,62.10
2022-11-13T13:42:03.100Z,71.85
2022-11-13T13:45:23.728Z,118.50
2022-11-13T13:48:13.621Z,43.45
2022-11-13T13:51:00.678Z,63.42
2022-11-13T13:53:47.280Z,54.13
2022-11-13T13:56:34.444Z,45.25
2022-11-13T13:59:32.150Z,72.07
2022-11-13T14:02:23.384Z,92.13
2022-11-13T14:05:38.263Z,81.93
2022-11-13T14:08:26.388Z,79.38
2022-11-13T14:11:38.688Z,56.58
2022-11-13T14:14:24.964Z,51.85
2022-11-13T14:17:11.934Z,101.55
2022-11-13T14:20:01.230Z,51.72
2022-11-13T14:22:55.276Z,76.68
2022-11-13T14:25:43.653Z,48.95
2022-11-13T14:28:44.086Z,46.03
2022-11-13T14:31:34.997Z,46.80
2022-11-13T14:34:24.056Z,80.63
2022-11-13T14:37:36.835Z,83.00
2022-11-13T14:40:28.626Z,53.35
2022-11-13T14:43:26.412Z,52.70
2022-11-13T14:46:31.599Z,46.97
2022-11-13T14:49:33.060Z,62.35
2022-11-13T14:52:27.111Z,51.03
2022-11-13T14:55:27.348Z,64.20
2022-11-13T14:58:14.655Z,88.05
2022-11-13T15:01:22.352Z,83.70
2022-11-13T15:04:08.687Z,97.57
2022-11-13T15:06:58.987Z,103.65
2022-11-13T15:09:44.711Z,187.13
2022-11-13T15:12:30.046Z,116.15
2022-11-13T15:15:21.747Z,70.22
2022-11-13T15:18:12.142Z,78.78
2022-11-13T15:20:58.327Z,104.53
2022-11-13T15:23:44.178Z,104.40
2022-11-13T15:26:30.039Z,66.72
2022-11-13T15:29:15.542Z,47.85
2022-11-13T15:32:02.814Z,47.40
2022-11-13T15:34:48.742Z,54.40
2022-11-13T15:37:34.579Z,52.38
2022-11-13T15:40:19.834Z,41.58
2022-11-13T15:43:10.205Z,52.65
2022-11-13T15:45:56.979Z,54.22
2022-11-13T15:48:43.228Z,59.45
2022-11-13T15:51:44.020Z,48.80
2022-11-13T15:54:33.615Z,51.30
2022-11-13T15:57:24.838Z,51.42
2022-11-13T16:00:18.346Z,56.40
2022-11-13T16:03:11.515Z,55.90
2022-11-13T16:05:59.354Z,65.30
2022-11-13T16:08:44.926Z,52.55
2022-11-13T16:11:32.785Z,47.97
2022-11-13T16:14:21.992Z,52.92
2022-11-13T16:17:20.350Z,64.13
2022-11-13T16:20:09.355Z,62.22
2022-11-13T16:22:55.165Z,72.63
2022-11-13T16:25:40.666Z,82.78
2022-11-13T16:28:26.034Z,68.40
2022-11-13T16:31:14.448Z,78.03
2022-11-13T16:34:00.462Z,74.03
2022-11-13T16:36:46.741Z,75.70
2022-11-13T16:39:32.210Z,81.68
2022-11-13T16:42:19.252Z,72.53
2022-11-13T16:45:05.278Z,71.07
2022-11-13T16:47:51.390Z,84.95
2022-11-13T16:50:40.056Z,80.45
2022-11-13T16:53:26.463Z,63.20
2022-11-13T16:56:15.890Z,75.20
2022-11-13T16:59:01.992Z,60.80
2022-11-13T17:01:48.014Z,72.22
2022-11-13T17:04:36.742Z,92.63
2022-11-13T17:07:23.317Z,77.07
2022-11-13T17:10:36.320Z,79.18
2022-11-13T17:13:22.754Z,58.10
2022-11-13T17:16:12.104Z,60.58
2022-11-13T17:18:59.411Z,49.83
2022-11-13T17:21:45.150Z,55.70
2022-11-13T17:24:30.699Z,56.65
2022-11-13T17:27:17.238Z,55.33
2022-11-13T17:30:04.348Z,52.83
2022-11-13T17:32:50.306Z,60.20
2022-11-13T17:35:35.894Z,66.07
2022-11-13T17:38:23.478Z,67.32
2022-11-13T17:41:10.992Z,66.88
2022-11-13T17:44:00.811Z,65.95
2022-11-13T17:46:51.187Z,58.17
2022-11-13T17:49:37.510Z,56.58
2022-11-13T17:52:23.339Z,58.53
2022-11-13T17:55:11.883Z,61.00
2022-11-13T17:58:01.500Z,60.70
2022-11-13T18:00:46.863Z,70.65
2022-11-13T18:03:33.080Z,61.30
2022-11-13T18:06:20.103Z,51.08
2022-11-13T18:09:07.927Z,65.38
2022-11-13T18:11:54.940Z,55.65
2022-11-13T18:14:40.789Z,62.95
2022-11-13T18:17:26.960Z,55.42
2022-11-13T18:20:12.661Z,51.65
2022-11-13T18:22:59.516Z,49.42
2022-11-13T18:25:45.410Z,55.33
2022-11-13T18:28:31.725Z,44.38
2022-11-13T18:31:29.423Z,53.65
2022-11-13T18:34:17.584Z,55.88
2022-11-13T18:37:03.856Z,50.83
2022-11-13T18:39:50.971Z,44.13
2022-11-13T18:42:36.962Z,47.42
2022-11-13T18:45:22.974Z,47.03
2022-11-13T18:48:08.777Z,47.33
2022-11-13T18:50:59.822Z,49.45
2022-11-13T18:53:48.257Z,51.75
2022-11-13T18:56:34.058Z,51.25
2022-11-13T18:59:20.253Z,51.70
2022-11-13T19:02:09.201Z,50.35
2022-11-13T19:04:55.058Z,49.42
2022-11-13T19:07:41.377Z,49.83
2022-11-13T19:10:28.011Z,44.80
2022-11-13T19:13:14.212Z,49.45
2022-11-13T19:16:08.354Z,43.85
2022-11-13T19:19:08.134Z,42.75
2022-11-13T19:21:54.153Z,44.50
2022-11-13T19:24:40.386Z,44.30
2022-11-13T19:27:25.734Z,46.33
2022-11-13T19:30:12.233Z,42.00
2022-11-13T19:32:58.884Z,45.33
2022-11-13T19:35:44.793Z,46.10
2022-11-13T19:38:32.180Z,41.60
2022-11-13T19:41:19.018Z,47.58
2022-11-13T19:44:06.680Z,42.22
2022-11-13T19:46:56.467Z,43.97
2022-11-13T19:49:42.772Z,45.13
2022-11-13T19:52:28.472Z,49.13
2022-11-13T19:55:14.340Z,49.95
2022-11-13T19:58:01.460Z,60.20
2022-11-13T20:00:47.609Z,52.97
2022-11-13T20:03:33.841Z,53.70
2022-11-13T20:06:20.088Z,56.13
2022-11-13T20:09:06.645Z,53.40
2022-11-13T20:11:52.834Z,59.08
2022-11-13T20:14:38.829Z,58.55
2022-11-13T20:17:25.000Z,55.17
2022-11-13T20:20:11.421Z,55.42
2022-11-13T20:22:57.384Z,54.95
2022-11-13T20:25:50.880Z,42.75
2022-11-13T20:28:37.013Z,48.05
2022-11-13T20:31:24.692Z,45.13
2022-11-13T20:34:10.750Z,48.25
2022-11-13T20:36:56.878Z,55.63
2022-11-13T20:39:42.445Z,51.83
2022-11-13T20:42:28.907Z,48.30
2022-11-13T20:45:15.163Z,56.15
2022-11-13T20:48:02.029Z,55.03
2022-11-13T20:50:48.224Z,47.88
2022-11-13T20:53:34.997Z,45.30
2022-11-13T20:56:22.452Z,45.30
2022-11-13T20:59:08.520Z,51.42
2022-11-13T21:01:54.734Z,47.80
2022-11-13T21:04:40.542Z,45.67
2022-11-13T21:07:26.438Z,53.95
2022-11-13T21:10:12.140Z,54.17
2022-11-13T21:12:57.776Z,50.28
2022-11-13T21:15:44.353Z,50.95
2022-11-13T21:18:30.758Z,52.65
2022-11-13T21:21:22.035Z,51.55
2022-11-13T21:24:08.065Z,46.67
2022-11-13T21:26:53.996Z,47.55
2022-11-13T21:29:39.486Z,54.80
2022-11-13T21:32:24.956Z,48.55
2022-11-13T21:35:10.534Z,48.42
2022-11-13T21:37:56.476Z,47.75
2022-11-13T21:40:42.345Z,41.03
2022-11-13T21:43:28.218Z,38.67
2022-11-13T21:46:14.489Z,50.83
2022-11-13T21:49:02.604Z,58.38
2022-11-13T21:51:48.181Z,68.43
2022-11-13T21:54:33.646Z,75.65
2022-11-13T21:57:19.874Z,56.17
2022-11-13T22:00:05.731Z,64.60
2022-11-13T22:02:51.188Z,58.90
2022-11-13T22:05:36.752Z,58.13
2022-11-13T22:08:22.110Z,65.55
2022-11-13T22:11:07.688Z,52.90
2022-11-13T22:13:54.042Z,49.50
2022-11-13T22:16:42.069Z,49.53
2022-11-13T22:19:31.132Z,51.47
2022-11-13T22:22:19.343Z,48.72
2022-11-13T22:25:05.442Z,47.75
2022-11-13T22:27:50.939Z,41.78
2022-11-13T22:30:36.830Z,37.92
2022-11-13T22:33:22.570Z,45.13
2022-11-13T22:36:11.414Z,50.47
2022-11-13T22:38:58.017Z,47.00
2022-11-13T22:41:43.714Z,42.00
2022-11-13T22:44:51.219Z,46.60
2022-11-13T22:47:37.952Z,49.50
2022-11-13T22:50:23.726Z,47.20
2022-11-13T22:53:09.260Z,53.15
2022-11-13T22:55:54.916Z,47.15
2022-11-13T22:58:40.366Z,57.38
2022-11-13T23:01:28.843Z,58.20
2022-11-13T23:04:14.574Z,57.10
2022-11-13T23:07:00.402Z,50.80
2022-11-13T23:09:45.886Z,50.38
2022-11-13T23:12:31.720Z,46.28
2022-11-13T23:15:17.252Z,45.40
2022-11-13T23:18:05.869Z,48.30
2022-11-13T23:20:55.384Z,41.17
2022-11-13T23:23:41.304Z,48.65
2022-11-13T23:26:28.514Z,48.22
2022-11-13T23:29:14.666Z,44.38
2022-11-13T23:32:00.707Z,50.30
2022-11-13T23:34:59.277Z,53.22
2022-11-13T23:37:46.341Z,44.55
2022-11-13T23:40:31.755Z,53.25
2022-11-13T23:43:17.379Z,54.00
2022-11-13T23:46:02.877Z,50.05
2022-11-13T23:48:48.629Z,53.13
2022-11-13T23:51:34.230Z,46.15
2022-11-13T23:54:19.778Z,54.03
2022-11-13T23:57:05.269Z,49.40
2022-11-13T23:59:50.788Z,47.40
